createdAt,value
2019-03-19T00:00:20.381Z,10.80
2019-03-19T00:02:49.442Z,26.17
2019-03-19T00:05:18.810Z,11.37
2019-03-19T00:07:47.856Z,20.33
2019-03-19T00:10:16.931Z,28.33
2019-03-19T00:12:46.005Z,16.23
2019-03-19T00:15:15.046Z,24.07
2019-03-19T00:17:44.130Z,14.53
2019-03-19T00:20:16.455Z,22.30
2019-03-19T00:22:45.505Z,16.37
2019-03-19T00:25:14.844Z,14.53
2019-03-19T00:27:43.925Z,17.70
2019-03-19T00:30:14.313Z,14.17
2019-03-19T00:32:43.357Z,18.70
2019-03-19T00:35:12.438Z,16.53
2019-03-19T00:37:41.520Z,13.37
2019-03-19T00:40:11.906Z,17.03
2019-03-19T00:42:41.250Z,14.77
2019-03-19T00:45:11.445Z,19.93
2019-03-19T00:47:40.514Z,22.37
2019-03-19T00:50:11.300Z,16.37
2019-03-19T00:52:40.378Z,18.77
2019-03-19T00:55:09.450Z,17.63
2019-03-19T00:57:38.488Z,17.27
2019-03-19T01:00:18.904Z,16.33
2019-03-19T01:02:47.960Z,25.43
2019-03-19T01:05:17.008Z,26.60
2019-03-19T01:07:46.053Z,18.27
2019-03-19T01:10:17.319Z,23.40
2019-03-19T01:12:45.926Z,25.90
2019-03-19T01:15:15.040Z,20.30
2019-03-19T01:17:44.136Z,21.43
2019-03-19T01:20:14.345Z,22.00
2019-03-19T01:22:43.396Z,21.07
2019-03-19T01:25:12.469Z,14.97
2019-03-19T01:27:41.591Z,21.67
2019-03-19T01:30:16.852Z,22.47
2019-03-19T01:32:46.288Z,18.97
2019-03-19T01:35:15.377Z,19.47
2019-03-19T01:37:44.447Z,16.93
2019-03-19T01:40:13.592Z,17.10
2019-03-19T01:42:42.733Z,25.87
2019-03-19T01:45:12.514Z,17.13
2019-03-19T01:47:41.835Z,23.67
2019-03-19T01:50:14.818Z,20.73
2019-03-19T01:52:43.962Z,19.00
2019-03-19T01:55:13.978Z,21.73
2019-03-19T01:57:43.024Z,15.57
2019-03-19T02:00:13.341Z,12.73
2019-03-19T02:02:42.395Z,19.70
2019-03-19T02:05:11.466Z,17.50
2019-03-19T02:07:40.537Z,15.93
2019-03-19T02:10:14.406Z,17.00
2019-03-19T02:12:43.501Z,13.40
2019-03-19T02:15:16.558Z,14.37
2019-03-19T02:17:45.703Z,20.23
2019-03-19T02:20:15.810Z,19.30
2019-03-19T02:22:44.890Z,20.47
2019-03-19T02:25:13.962Z,20.47
2019-03-19T02:27:43.058Z,12.70
2019-03-19T02:30:14.361Z,18.23
2019-03-19T02:32:43.437Z,16.03
2019-03-19T02:35:12.557Z,17.30
2019-03-19T02:37:41.676Z,20.63
2019-03-19T02:40:15.910Z,14.87
2019-03-19T02:42:44.990Z,15.00
2019-03-19T02:45:15.055Z,13.43
2019-03-19T02:47:44.162Z,16.43
2019-03-19T02:50:14.477Z,13.63
2019-03-19T02:52:43.523Z,20.73
2019-03-19T02:55:12.578Z,15.47
2019-03-19T02:57:41.672Z,18.97
2019-03-19T03:00:17.035Z,18.10
2019-03-19T03:02:46.113Z,16.37
2019-03-19T03:05:20.241Z,12.60
2019-03-19T03:07:49.322Z,20.00
2019-03-19T03:10:18.369Z,22.73
2019-03-19T03:12:47.454Z,14.30
2019-03-19T03:15:16.494Z,14.47
2019-03-19T03:17:45.612Z,17.93
2019-03-19T03:20:15.530Z,18.50
2019-03-19T03:22:44.579Z,14.50
2019-03-19T03:25:15.930Z,19.13
2019-03-19T03:27:45.061Z,13.77
2019-03-19T03:30:21.971Z,23.27
2019-03-19T03:32:51.082Z,27.13
2019-03-19T03:35:20.467Z,22.23
2019-03-19T03:37:49.586Z,19.73
2019-03-19T03:40:19.499Z,18.50
2019-03-19T03:42:48.642Z,19.33
2019-03-19T03:45:18.555Z,20.70
2019-03-19T03:47:47.593Z,22.80
2019-03-19T03:50:17.182Z,20.07
2019-03-19T03:52:46.284Z,23.73
2019-03-19T03:55:16.250Z,22.33
2019-03-19T03:57:45.331Z,23.73
2019-03-19T04:00:15.521Z,21.33
2019-03-19T04:02:44.953Z,24.53
2019-03-19T04:05:14.275Z,20.10
2019-03-19T04:07:43.370Z,17.40
2019-03-19T04:10:13.697Z,21.03
2019-03-19T04:12:42.835Z,25.37
2019-03-19T04:15:16.873Z,20.73
2019-03-19T04:17:45.919Z,18.50
2019-03-19T04:20:16.701Z,15.20
2019-03-19T04:22:45.834Z,19.40
2019-03-19T04:25:14.882Z,18.90
2019-03-19T04:27:44.382Z,23.50
2019-03-19T04:30:18.319Z,20.50
2019-03-19T04:32:47.390Z,14.40
2019-03-19T04:35:16.437Z,19.83
2019-03-19T04:37:45.522Z,20.80
2019-03-19T04:40:15.136Z,19.80
2019-03-19T04:42:44.628Z,21.53
2019-03-19T04:45:16.986Z,21.87
2019-03-19T04:47:46.104Z,14.43
2019-03-19T04:50:15.924Z,23.00
2019-03-19T04:52:45.132Z,14.17
2019-03-19T04:55:14.917Z,15.87
2019-03-19T04:57:45.724Z,25.17
2019-03-19T05:00:18.770Z,19.43
2019-03-19T05:02:47.950Z,17.43
2019-03-19T05:05:17.022Z,20.27
2019-03-19T05:07:46.061Z,20.13
2019-03-19T05:10:17.150Z,17.80
2019-03-19T05:12:46.192Z,20.53
2019-03-19T05:15:15.256Z,19.57
2019-03-19T05:17:44.614Z,17.20
2019-03-19T05:20:16.919Z,18.20
2019-03-19T05:22:45.966Z,24.50
2019-03-19T05:25:15.013Z,17.90
2019-03-19T05:27:44.095Z,14.37
2019-03-19T05:30:17.404Z,15.33
2019-03-19T05:32:46.494Z,16.63
2019-03-19T05:35:15.573Z,17.77
2019-03-19T05:37:44.613Z,15.57
2019-03-19T05:40:22.484Z,15.13
2019-03-19T05:42:51.532Z,11.37
2019-03-19T05:45:24.705Z,19.27
2019-03-19T05:47:53.779Z,18.43
2019-03-19T05:50:23.527Z,16.57
2019-03-19T05:52:52.562Z,18.63
2019-03-19T05:55:21.600Z,14.93
2019-03-19T05:57:50.753Z,22.47
2019-03-19T06:00:21.512Z,17.37
2019-03-19T06:02:50.597Z,13.17
2019-03-19T06:05:21.189Z,15.17
2019-03-19T06:07:50.593Z,23.43
2019-03-19T06:10:19.636Z,29.97
2019-03-19T06:12:48.697Z,19.20
2019-03-19T06:15:17.738Z,20.50
2019-03-19T06:17:46.787Z,25.47
2019-03-19T06:20:17.155Z,20.93
2019-03-19T06:22:46.197Z,23.20
2019-03-19T06:25:15.292Z,19.57
2019-03-19T06:27:44.421Z,15.97
2019-03-19T06:30:18.192Z,15.40
2019-03-19T06:32:47.240Z,19.50
2019-03-19T06:35:16.482Z,17.53
2019-03-19T06:37:45.549Z,16.77
2019-03-19T06:40:16.817Z,14.97
2019-03-19T06:42:45.974Z,17.73
2019-03-19T06:45:16.089Z,13.27
2019-03-19T06:47:45.409Z,12.87
2019-03-19T06:50:18.685Z,12.37
2019-03-19T06:52:47.769Z,18.77
2019-03-19T06:55:18.021Z,18.73
2019-03-19T06:57:47.078Z,15.17
2019-03-19T07:01:01.946Z,26.07
2019-03-19T07:03:31.018Z,14.67
2019-03-19T07:06:00.085Z,17.70
2019-03-19T07:08:29.160Z,14.27
2019-03-19T07:10:58.257Z,12.57
2019-03-19T07:13:27.293Z,20.03
2019-03-19T07:15:56.378Z,15.93
2019-03-19T07:18:25.465Z,27.07
2019-03-19T07:20:54.871Z,14.97
2019-03-19T07:23:23.955Z,13.57
2019-03-19T07:25:53.054Z,16.00
2019-03-19T07:28:22.611Z,11.53
2019-03-19T07:30:52.721Z,12.60
2019-03-19T07:33:21.819Z,19.90
2019-03-19T07:35:50.937Z,14.87
2019-03-19T07:38:20.006Z,13.67
2019-03-19T07:40:49.125Z,21.07
2019-03-19T07:43:18.176Z,13.50
2019-03-19T07:45:47.223Z,23.07
2019-03-19T07:48:16.305Z,12.73
2019-03-19T07:50:45.642Z,17.60
2019-03-19T07:53:14.676Z,14.57
2019-03-19T07:55:43.727Z,20.30
2019-03-19T07:58:13.146Z,17.47
2019-03-19T08:00:42.201Z,14.73
2019-03-19T08:03:16.187Z,17.10
2019-03-19T08:05:42.054Z,12.70
2019-03-19T08:08:11.092Z,17.43
2019-03-19T08:10:40.174Z,20.33
2019-03-19T08:13:09.209Z,16.63
2019-03-19T08:15:38.252Z,16.97
2019-03-19T08:18:07.296Z,10.13
2019-03-19T08:20:36.349Z,17.73
2019-03-19T08:23:05.392Z,25.50
2019-03-19T08:25:34.470Z,17.97
2019-03-19T08:28:03.590Z,17.77
2019-03-19T08:30:32.629Z,15.17
2019-03-19T08:33:01.722Z,20.87
2019-03-19T08:35:30.834Z,17.10
2019-03-19T08:37:59.880Z,19.33
2019-03-19T08:40:29.187Z,21.77
2019-03-19T08:42:58.427Z,20.47
2019-03-19T08:45:27.847Z,17.53
2019-03-19T08:47:56.892Z,16.17
2019-03-19T08:50:25.943Z,12.47
2019-03-19T08:52:55.571Z,19.07
2019-03-19T08:55:25.188Z,20.10
2019-03-19T08:57:54.257Z,13.03
2019-03-19T09:00:24.611Z,24.00
2019-03-19T09:03:09.016Z,17.73
2019-03-19T09:05:38.105Z,16.03
2019-03-19T09:08:07.140Z,17.60
2019-03-19T09:10:36.227Z,21.53
2019-03-19T09:13:05.297Z,17.40
2019-03-19T09:15:34.342Z,12.80
2019-03-19T09:18:03.416Z,17.97
2019-03-19T09:20:32.461Z,15.03
2019-03-19T09:23:01.555Z,20.43
2019-03-19T09:25:30.694Z,15.07
2019-03-19T09:27:59.797Z,12.87
2019-03-19T09:30:29.118Z,21.57
2019-03-19T09:32:58.190Z,18.27
2019-03-19T09:35:28.214Z,17.67
2019-03-19T09:37:59.103Z,13.57
2019-03-19T09:40:28.040Z,10.97
2019-03-19T09:42:57.118Z,16.10
2019-03-19T09:45:26.152Z,19.23
2019-03-19T09:47:55.210Z,15.23
2019-03-19T09:50:27.395Z,11.07
2019-03-19T09:52:56.444Z,12.57
2019-03-19T09:55:25.481Z,13.47
2019-03-19T09:57:54.533Z,12.63
2019-03-19T10:00:23.964Z,11.40
2019-03-19T10:02:53.046Z,12.27
2019-03-19T10:05:22.088Z,13.03
2019-03-19T10:07:51.138Z,11.03
2019-03-19T10:10:23.566Z,11.70
2019-03-19T10:12:52.691Z,11.27
2019-03-19T10:15:21.805Z,12.13
2019-03-19T10:17:59.829Z,8.47
2019-03-19T10:20:28.869Z,10.47
2019-03-19T10:22:57.954Z,12.53
2019-03-19T10:25:27.348Z,12.70
2019-03-19T10:27:56.423Z,13.47
2019-03-19T10:30:25.495Z,15.40
2019-03-19T10:32:54.641Z,13.70
2019-03-19T10:35:23.678Z,8.80
2019-03-19T10:37:52.729Z,16.13
2019-03-19T10:40:22.173Z,28.63
2019-03-19T10:42:51.221Z,16.37
2019-03-19T10:45:22.464Z,10.03
2019-03-19T10:47:51.518Z,12.23
2019-03-19T10:50:21.330Z,9.07
2019-03-19T10:52:50.398Z,7.53
2019-03-19T10:55:19.452Z,9.37
2019-03-19T10:57:48.494Z,13.73
2019-03-19T11:00:20.105Z,6.17
2019-03-19T11:02:55.941Z,13.70
2019-03-19T11:05:25.391Z,10.63
2019-03-19T11:07:54.465Z,11.73
2019-03-19T11:10:23.620Z,9.67
2019-03-19T11:12:52.758Z,9.47
2019-03-19T11:15:31.829Z,10.77
2019-03-19T11:18:01.039Z,6.27
2019-03-19T11:20:30.092Z,9.37
2019-03-19T11:22:59.133Z,12.87
2019-03-19T11:25:29.341Z,7.27
2019-03-19T11:27:58.379Z,5.10
2019-03-19T11:30:31.429Z,8.40
2019-03-19T11:33:00.570Z,11.57
2019-03-19T11:35:29.640Z,6.10
2019-03-19T11:37:58.673Z,10.27
2019-03-19T11:40:27.732Z,4.60
2019-03-19T11:42:57.174Z,12.83
2019-03-19T11:45:26.241Z,13.97
2019-03-19T11:47:55.666Z,6.87
2019-03-19T11:50:25.841Z,9.63
2019-03-19T11:52:54.989Z,10.23
2019-03-19T11:55:24.025Z,11.80
2019-03-19T11:57:53.133Z,9.33
2019-03-19T12:00:30.265Z,8.93
2019-03-19T12:03:10.899Z,8.63
2019-03-19T12:05:30.130Z,6.10
2019-03-19T12:07:59.229Z,10.97
2019-03-19T12:10:28.353Z,10.33
2019-03-19T12:12:57.490Z,7.10
2019-03-19T12:15:26.535Z,9.07
2019-03-19T12:17:55.597Z,12.10
2019-03-19T12:20:24.703Z,7.50
2019-03-19T12:22:53.740Z,8.13
2019-03-19T12:25:22.814Z,6.67
2019-03-19T12:27:51.848Z,12.20
2019-03-19T12:30:26.301Z,8.33
2019-03-19T12:32:54.731Z,10.53
2019-03-19T12:35:23.777Z,5.67
2019-03-19T12:37:52.862Z,9.03
2019-03-19T12:40:23.173Z,10.13
2019-03-19T12:42:52.273Z,5.10
2019-03-19T12:45:22.461Z,6.50
2019-03-19T12:47:51.529Z,6.63
2019-03-19T12:50:21.101Z,8.20
2019-03-19T12:52:56.085Z,11.10
2019-03-19T12:55:25.522Z,8.47
2019-03-19T12:57:54.787Z,8.87
2019-03-19T13:00:33.503Z,9.57
2019-03-19T13:02:55.737Z,5.90
2019-03-19T13:05:24.882Z,4.70
2019-03-19T13:07:54.273Z,5.27
2019-03-19T13:10:24.182Z,6.53
2019-03-19T13:12:53.229Z,6.30
2019-03-19T13:15:22.282Z,5.83
2019-03-19T13:17:51.458Z,11.13
2019-03-19T13:20:23.953Z,9.83
2019-03-19T13:22:52.988Z,6.90
2019-03-19T13:25:25.479Z,7.93
2019-03-19T13:27:54.614Z,8.67
2019-03-19T13:30:28.339Z,9.87
2019-03-19T13:32:57.749Z,8.07
2019-03-19T13:35:32.688Z,8.37
2019-03-19T13:38:01.765Z,10.00
2019-03-19T13:40:30.797Z,8.60
2019-03-19T13:42:59.853Z,5.80
2019-03-19T13:45:28.940Z,10.07
2019-03-19T13:47:58.073Z,7.60
2019-03-19T13:50:27.109Z,7.50
2019-03-19T13:52:56.152Z,8.23
2019-03-19T13:55:25.235Z,7.53
2019-03-19T13:57:54.267Z,8.27
2019-03-19T14:00:23.337Z,7.50
2019-03-19T14:02:52.414Z,10.27
2019-03-19T14:05:21.534Z,10.93
2019-03-19T14:07:50.611Z,9.30
2019-03-19T14:10:20.233Z,7.80
2019-03-19T14:12:49.610Z,6.43
2019-03-19T14:15:27.173Z,6.20
2019-03-19T14:17:56.248Z,8.57
2019-03-19T14:20:25.409Z,6.63
2019-03-19T14:22:54.477Z,14.17
2019-03-19T14:25:23.525Z,7.00
2019-03-19T14:27:52.759Z,9.53
2019-03-19T14:30:22.891Z,9.77
2019-03-19T14:32:51.916Z,9.90
2019-03-19T14:35:20.960Z,9.73
2019-03-19T14:37:50.034Z,10.70
2019-03-19T14:40:22.362Z,9.77
2019-03-19T14:42:51.453Z,10.30
2019-03-19T14:45:20.527Z,7.47
2019-03-19T14:47:49.556Z,6.40
2019-03-19T14:50:19.870Z,11.23
2019-03-19T14:52:48.905Z,6.17
2019-03-19T14:55:26.993Z,10.23
2019-03-19T14:57:56.040Z,6.30
2019-03-19T15:00:25.455Z,10.27
2019-03-19T15:02:54.492Z,7.83
2019-03-19T15:05:23.542Z,8.83
2019-03-19T15:07:52.606Z,6.13
2019-03-19T15:10:23.754Z,6.63
2019-03-19T15:12:52.796Z,10.60
2019-03-19T15:15:22.281Z,12.23
2019-03-19T15:17:51.320Z,7.33
2019-03-19T15:20:21.510Z,8.97
2019-03-19T15:22:50.552Z,8.80
2019-03-19T15:25:19.600Z,12.97
2019-03-19T15:27:48.640Z,8.13
2019-03-19T15:30:18.628Z,6.97
2019-03-19T15:32:47.679Z,17.90
2019-03-19T15:35:16.720Z,8.17
2019-03-19T15:37:45.793Z,8.20
2019-03-19T15:40:16.858Z,13.97
2019-03-19T15:42:45.892Z,9.60
2019-03-19T15:45:26.120Z,7.47
2019-03-19T15:47:55.163Z,7.57
2019-03-19T15:50:24.229Z,9.57
2019-03-19T15:52:53.298Z,9.83
2019-03-19T15:55:22.362Z,8.77
2019-03-19T15:57:51.749Z,9.77
2019-03-19T16:00:21.350Z,9.90
2019-03-19T16:02:50.417Z,9.33
2019-03-19T16:05:19.470Z,7.93
2019-03-19T16:07:48.535Z,8.77
2019-03-19T16:10:18.322Z,12.20
2019-03-19T16:12:47.468Z,12.40
2019-03-19T16:15:21.110Z,13.93
2019-03-19T16:17:50.290Z,10.10
2019-03-19T16:20:22.760Z,8.50
2019-03-19T16:22:51.858Z,9.90
2019-03-19T16:25:20.934Z,9.60
2019-03-19T16:27:49.968Z,15.13
2019-03-19T16:30:19.685Z,8.93
2019-03-19T16:32:48.712Z,9.53
2019-03-19T16:35:17.764Z,12.07
2019-03-19T16:37:46.829Z,8.10
2019-03-19T16:40:19.710Z,14.03
2019-03-19T16:42:48.863Z,12.67
2019-03-19T16:45:18.604Z,10.53
2019-03-19T16:47:47.978Z,9.93
2019-03-19T16:50:17.958Z,9.13
2019-03-19T16:52:47.030Z,14.57
2019-03-19T16:55:19.790Z,9.27
2019-03-19T16:57:48.872Z,12.90
2019-03-19T17:00:20.337Z,10.93
2019-03-19T17:02:49.510Z,13.50
2019-03-19T17:05:19.485Z,11.77
2019-03-19T17:07:48.534Z,10.90
2019-03-19T17:10:21.791Z,9.80
2019-03-19T17:12:50.855Z,8.03
2019-03-19T17:15:20.026Z,13.03
2019-03-19T17:17:49.065Z,14.03
2019-03-19T17:20:19.616Z,10.97
2019-03-19T17:22:48.692Z,11.00
2019-03-19T17:25:19.966Z,17.70
2019-03-19T17:27:49.041Z,15.33
2019-03-19T17:30:20.160Z,12.07
2019-03-19T17:32:49.208Z,12.23
2019-03-19T17:35:18.252Z,13.23
2019-03-19T17:37:47.301Z,10.00
2019-03-19T17:40:16.758Z,13.97
2019-03-19T17:42:45.792Z,12.07
2019-03-19T17:45:15.806Z,11.83
2019-03-19T17:47:44.882Z,12.97
2019-03-19T17:50:24.168Z,11.70
2019-03-19T17:52:54.289Z,15.30
2019-03-19T17:55:23.430Z,10.90
2019-03-19T17:57:52.471Z,9.47
2019-03-19T18:00:41.366Z,14.67
2019-03-19T18:03:10.437Z,14.67
2019-03-19T18:05:39.506Z,11.63
2019-03-19T18:08:08.548Z,11.37
2019-03-19T18:10:37.597Z,12.27
2019-03-19T18:13:06.906Z,13.10
2019-03-19T18:15:36.023Z,11.77
2019-03-19T18:18:05.701Z,10.10
2019-03-19T18:20:35.094Z,9.80
2019-03-19T18:23:04.170Z,10.33
2019-03-19T18:25:34.313Z,10.97
2019-03-19T18:28:03.354Z,15.37
2019-03-19T18:30:32.430Z,6.90
2019-03-19T18:33:01.496Z,8.47
2019-03-19T18:35:30.566Z,16.83
2019-03-19T18:38:01.646Z,16.97
2019-03-19T18:40:30.692Z,14.93
2019-03-19T18:42:59.772Z,18.63
2019-03-19T18:45:28.850Z,21.97
2019-03-19T18:47:57.922Z,14.57
2019-03-19T18:50:26.986Z,14.17
2019-03-19T18:52:56.058Z,10.17
2019-03-19T18:55:25.097Z,17.23
2019-03-19T18:57:54.145Z,14.70
2019-03-19T19:00:24.062Z,10.03
2019-03-19T19:02:53.134Z,20.73
2019-03-19T19:05:23.200Z,22.17
2019-03-19T19:07:52.250Z,17.20
2019-03-19T19:10:21.811Z,30.63
2019-03-19T19:12:50.988Z,32.93
2019-03-19T19:15:23.906Z,40.73
2019-03-19T19:17:52.985Z,36.50
2019-03-19T19:20:22.064Z,25.73
2019-03-19T19:22:51.237Z,28.50
2019-03-19T19:25:24.371Z,17.93
2019-03-19T19:27:53.442Z,25.23
2019-03-19T19:30:26.890Z,18.63
2019-03-19T19:33:01.665Z,18.03
2019-03-19T19:35:26.735Z,25.33
2019-03-19T19:37:55.812Z,25.17
2019-03-19T19:40:24.888Z,26.23
2019-03-19T19:42:53.973Z,31.67
2019-03-19T19:45:23.029Z,27.47
2019-03-19T19:47:52.814Z,23.83
2019-03-19T19:50:23.886Z,30.10
2019-03-19T19:52:52.959Z,23.90
2019-03-19T19:55:22.008Z,23.97
2019-03-19T19:57:51.059Z,21.00
2019-03-19T20:00:23.353Z,18.60
2019-03-19T20:02:52.442Z,20.83
2019-03-19T20:05:21.517Z,13.37
2019-03-19T20:07:50.590Z,15.73
2019-03-19T20:10:21.475Z,17.47
2019-03-19T20:12:50.636Z,20.53
2019-03-19T20:15:19.684Z,18.60
2019-03-19T20:17:48.736Z,17.93
2019-03-19T20:20:22.481Z,18.03
2019-03-19T20:22:51.574Z,27.57
2019-03-19T20:25:20.696Z,17.90
2019-03-19T20:27:49.740Z,22.50
2019-03-19T20:30:20.198Z,17.53
2019-03-19T20:32:49.277Z,19.93
2019-03-19T20:35:18.429Z,28.77
2019-03-19T20:37:47.483Z,18.20
2019-03-19T20:40:16.804Z,19.10
2019-03-19T20:42:45.860Z,25.90
2019-03-19T20:45:17.316Z,23.70
2019-03-19T20:47:46.657Z,24.90
2019-03-19T20:50:29.178Z,27.27
2019-03-19T20:52:58.270Z,31.00
2019-03-19T20:55:27.350Z,28.97
2019-03-19T20:57:56.434Z,44.17
2019-03-19T21:00:25.486Z,30.83
2019-03-19T21:02:54.540Z,23.93
2019-03-19T21:05:23.606Z,23.53
2019-03-19T21:07:52.663Z,29.47
2019-03-19T21:10:22.749Z,22.07
2019-03-19T21:12:51.802Z,24.47
2019-03-19T21:15:29.137Z,25.13
2019-03-19T21:17:58.184Z,24.07
2019-03-19T21:20:27.238Z,22.27
2019-03-19T21:22:56.315Z,19.77
2019-03-19T21:25:25.402Z,14.70
2019-03-19T21:27:54.448Z,22.30
2019-03-19T21:30:24.358Z,25.67
2019-03-19T21:32:53.409Z,18.10
2019-03-19T21:35:23.203Z,21.43
2019-03-19T21:37:52.287Z,27.73
2019-03-19T21:40:21.381Z,30.53
2019-03-19T21:42:50.509Z,25.17
2019-03-19T21:45:20.748Z,30.40
2019-03-19T21:47:49.910Z,31.37
2019-03-19T21:50:23.729Z,28.57
2019-03-19T21:52:52.786Z,32.73
2019-03-19T21:55:21.869Z,41.33
2019-03-19T21:57:50.964Z,46.83
2019-03-19T22:00:24.017Z,50.77
2019-03-19T22:02:53.100Z,39.97
2019-03-19T22:05:22.151Z,39.20
2019-03-19T22:07:51.230Z,36.80
2019-03-19T22:10:21.163Z,47.60
2019-03-19T22:12:50.318Z,39.93
2019-03-19T22:15:22.919Z,41.90
2019-03-19T22:17:52.262Z,32.40
2019-03-19T22:20:21.320Z,28.23
2019-03-19T22:22:50.379Z,33.20
2019-03-19T22:25:19.469Z,25.57
2019-03-19T22:27:48.588Z,27.17
2019-03-19T22:30:19.959Z,21.80
2019-03-19T22:32:49.040Z,21.13
2019-03-19T22:35:18.109Z,21.83
2019-03-19T22:37:47.255Z,24.13
2019-03-19T22:40:17.039Z,30.07
2019-03-19T22:42:46.103Z,21.43
2019-03-19T22:45:17.220Z,20.30
2019-03-19T22:47:46.281Z,21.23
2019-03-19T22:50:18.874Z,18.63
2019-03-19T22:52:47.954Z,25.70
2019-03-19T22:55:28.097Z,18.53
2019-03-19T22:57:47.814Z,27.17
2019-03-19T23:00:33.550Z,19.13
2019-03-19T23:03:02.669Z,28.83
2019-03-19T23:05:31.762Z,22.90
2019-03-19T23:08:00.846Z,20.93
2019-03-19T23:10:29.927Z,24.17
2019-03-19T23:12:59.087Z,28.70
2019-03-19T23:15:28.179Z,32.27
2019-03-19T23:17:57.298Z,29.70
2019-03-19T23:20:26.458Z,39.70
2019-03-19T23:22:55.505Z,40.10
2019-03-19T23:25:24.611Z,38.50
2019-03-19T23:27:53.700Z,39.37
2019-03-19T23:30:24.129Z,39.23
2019-03-19T23:32:53.177Z,28.10
2019-03-19T23:35:22.232Z,38.53
2019-03-19T23:37:51.318Z,38.37
2019-03-19T23:40:21.109Z,34.03
2019-03-19T23:42:50.165Z,37.93
2019-03-19T23:45:19.250Z,27.43
2019-03-19T23:47:48.306Z,29.87
2019-03-19T23:50:18.530Z,29.80
2019-03-19T23:52:47.622Z,23.37
2019-03-19T23:55:16.677Z,25.13
2019-03-19T23:57:45.733Z,27.60
